Terminal Aerodrome Forecast
Issued by NWS

Home | Current Version | Previous Version | Text Only | Print | Product List | Glossary On
Versions: 1 2 3 4 5 6 7 8 9 10 11 12 13 14 15 16 17
058
FTUS46 KSEW 121735
TAFBFI
TAF
KBFI 121735Z 1218/1318 19010G18KT 3SM -RA BR BKN008 OVC014
     FM122000 21014G22KT P6SM SCT015 BKN020 OVC040
     FM122200 23012G20KT P6SM VCSH SCT025 BKN045
      TEMPO 1222/1302 6SM -SHRA BR BKN025 OVC035
     FM130800 19009KT 5SM -RA BR SCT010 OVC018
     FM131400 19011KT P6SM SCT015 BKN030=

USA.gov is the U.S. government's official web portal to all federal, state and local government web resources and services.